sensor_id;sensor_type;location;lat;lon;timestamp;P1;durP1;ratioP1;P2;durP2;ratioP2
15273;SDS011;7738;49.532;11.156;2023-02-28T00:01:11;3.17;;;2.63;;
15273;SDS011;7738;49.532;11.156;2023-02-28T00:03:44;1.83;;;1.70;;
15273;SDS011;7738;49.532;11.156;2023-02-28T00:06:14;6.07;;;3.07;;
15273;SDS011;7738;49.532;11.156;2023-02-28T00:08:44;5.63;;;2.77;;
15273;SDS011;7738;49.532;11.156;2023-02-28T00:11:14;4.53;;;2.60;;
15273;SDS011;7738;49.532;11.156;2023-02-28T00:13:46;3.17;;;2.17;;
15273;SDS011;7738;49.532;11.156;2023-02-28T00:16:17;6.23;;;2.60;;
15273;SDS011;7738;49.532;11.156;2023-02-28T00:18:51;2.47;;;2.27;;
15273;SDS011;7738;49.532;11.156;2023-02-28T00:21:21;3.70;;;2.60;;
15273;SDS011;7738;49.532;11.156;2023-02-28T00:23:51;2.53;;;2.33;;
15273;SDS011;7738;49.532;11.156;2023-02-28T00:26:21;3.77;;;2.50;;
15273;SDS011;7738;49.532;11.156;2023-02-28T00:28:51;3.10;;;1.80;;
15273;SDS011;7738;49.532;11.156;2023-02-28T00:31:21;9.83;;;2.60;;
15273;SDS011;7738;49.532;11.156;2023-02-28T00:33:55;4.90;;;2.60;;
15273;SDS011;7738;49.532;11.156;2023-02-28T00:36:25;3.50;;;2.80;;
15273;SDS011;7738;49.532;11.156;2023-02-28T00:38:55;4.10;;;2.13;;
15273;SDS011;7738;49.532;11.156;2023-02-28T00:41:27;3.00;;;2.30;;
15273;SDS011;7738;49.532;11.156;2023-02-28T00:43:57;2.57;;;2.30;;
15273;SDS011;7738;49.532;11.156;2023-02-28T00:46:27;6.90;;;2.83;;
15273;SDS011;7738;49.532;11.156;2023-02-28T00:48:59;2.93;;;2.37;;
15273;SDS011;7738;49.532;11.156;2023-02-28T00:51:30;2.90;;;2.67;;
15273;SDS011;7738;49.532;11.156;2023-02-28T00:53:59;3.57;;;2.60;;
15273;SDS011;7738;49.532;11.156;2023-02-28T00:56:31;3.87;;;2.90;;
15273;SDS011;7738;49.532;11.156;2023-02-28T00:59:01;2.77;;;2.50;;
15273;SDS011;7738;49.532;11.156;2023-02-28T01:01:31;7.17;;;2.93;;
15273;SDS011;7738;49.532;11.156;2023-02-28T01:04:04;8.93;;;2.57;;
15273;SDS011;7738;49.532;11.156;2023-02-28T01:06:34;2.80;;;2.57;;
15273;SDS011;7738;49.532;11.156;2023-02-28T01:09:05;5.73;;;3.03;;
15273;SDS011;7738;49.532;11.156;2023-02-28T01:11:36;3.00;;;2.70;;
15273;SDS011;7738;49.532;11.156;2023-02-28T01:14:09;6.63;;;3.90;;
15273;SDS011;7738;49.532;11.156;2023-02-28T01:16:41;5.60;;;3.17;;
15273;SDS011;7738;49.532;11.156;2023-02-28T01:19:14;3.87;;;3.03;;
15273;SDS011;7738;49.532;11.156;2023-02-28T01:21:45;7.15;;;2.70;;
15273;SDS011;7738;49.532;11.156;2023-02-28T01:24:15;3.53;;;2.97;;
15273;SDS011;7738;49.532;11.156;2023-02-28T01:26:45;6.50;;;2.87;;
15273;SDS011;7738;49.532;11.156;2023-02-28T01:29:15;4.47;;;2.83;;
15273;SDS011;7738;49.532;11.156;2023-02-28T01:31:45;4.67;;;3.50;;
15273;SDS011;7738;49.532;11.156;2023-02-28T01:34:18;6.53;;;4.13;;
15273;SDS011;7738;49.532;11.156;2023-02-28T01:36:49;5.75;;;3.05;;
15273;SDS011;7738;49.532;11.156;2023-02-28T01:39:19;2.27;;;2.07;;
15273;SDS011;7738;49.532;11.156;2023-02-28T01:41:49;4.27;;;2.83;;
15273;SDS011;7738;49.532;11.156;2023-02-28T01:47:20;3.77;;;2.40;;
15273;SDS011;7738;49.532;11.156;2023-02-28T01:49:53;2.77;;;2.57;;
15273;SDS011;7738;49.532;11.156;2023-02-28T01:52:23;4.90;;;3.43;;
15273;SDS011;7738;49.532;11.156;2023-02-28T01:54:55;5.90;;;3.10;;
15273;SDS011;7738;49.532;11.156;2023-02-28T01:57:30;3.83;;;2.63;;
15273;SDS011;7738;49.532;11.156;2023-02-28T02:00:05;5.97;;;3.03;;
15273;SDS011;7738;49.532;11.156;2023-02-28T02:02:40;5.00;;;3.37;;
15273;SDS011;7738;49.532;11.156;2023-02-28T02:05:17;4.55;;;3.05;;
15273;SDS011;7738;49.532;11.156;2023-02-28T02:07:50;4.73;;;3.47;;
15273;SDS011;7738;49.532;11.156;2023-02-28T02:10:25;4.40;;;2.58;;
15273;SDS011;7738;49.532;11.156;2023-02-28T02:13:13;3.77;;;3.27;;
15273;SDS011;7738;49.532;11.156;2023-02-28T02:15:53;2.97;;;2.40;;
15273;SDS011;7738;49.532;11.156;2023-02-28T02:18:30;4.47;;;2.87;;
15273;SDS011;7738;49.532;11.156;2023-02-28T02:24:23;3.80;;;2.60;;
15273;SDS011;7738;49.532;11.156;2023-02-28T02:27:20;4.05;;;2.75;;
15273;SDS011;7738;49.532;11.156;2023-02-28T02:29:59;5.97;;;4.40;;
15273;SDS011;7738;49.532;11.156;2023-02-28T02:36:02;5.93;;;3.97;;
15273;SDS011;7738;49.532;11.156;2023-02-28T02:38:37;4.67;;;3.47;;
15273;SDS011;7738;49.532;11.156;2023-02-28T02:41:16;7.50;;;4.03;;
15273;SDS011;7738;49.532;11.156;2023-02-28T02:43:51;6.97;;;2.67;;
15273;SDS011;7738;49.532;11.156;2023-02-28T02:46:25;5.25;;;2.85;;
15273;SDS011;7738;49.532;11.156;2023-02-28T02:48:59;4.90;;;3.37;;
15273;SDS011;7738;49.532;11.156;2023-02-28T02:51:36;3.77;;;3.17;;
15273;SDS011;7738;49.532;11.156;2023-02-28T02:54:11;4.43;;;2.90;;
15273;SDS011;7738;49.532;11.156;2023-02-28T02:56:46;7.33;;;3.07;;
15273;SDS011;7738;49.532;11.156;2023-02-28T02:59:20;3.97;;;3.07;;
15273;SDS011;7738;49.532;11.156;2023-02-28T03:01:52;7.50;;;4.07;;
15273;SDS011;7738;49.532;11.156;2023-02-28T03:04:24;4.10;;;3.47;;
15273;SDS011;7738;49.532;11.156;2023-02-28T03:07:00;6.17;;;3.83;;
15273;SDS011;7738;49.532;11.156;2023-02-28T03:09:32;5.07;;;4.30;;
15273;SDS011;7738;49.532;11.156;2023-02-28T03:12:06;5.47;;;3.87;;
15273;SDS011;7738;49.532;11.156;2023-02-28T03:14:46;5.80;;;3.90;;
15273;SDS011;7738;49.532;11.156;2023-02-28T03:17:42;4.00;;;3.53;;
15273;SDS011;7738;49.532;11.156;2023-02-28T03:20:26;4.90;;;4.33;;
15273;SDS011;7738;49.532;11.156;2023-02-28T03:23:10;8.10;;;3.87;;
15273;SDS011;7738;49.532;11.156;2023-02-28T03:25:49;7.83;;;3.83;;
15273;SDS011;7738;49.532;11.156;2023-02-28T03:28:28;5.00;;;3.30;;
15273;SDS011;7738;49.532;11.156;2023-02-28T03:31:03;5.23;;;4.27;;
15273;SDS011;7738;49.532;11.156;2023-02-28T03:33:40;6.33;;;3.77;;
15273;SDS011;7738;49.532;11.156;2023-02-28T03:36:22;7.57;;;4.77;;
15273;SDS011;7738;49.532;11.156;2023-02-28T03:38:58;12.50;;;4.45;;
15273;SDS011;7738;49.532;11.156;2023-02-28T03:41:32;4.90;;;3.40;;
15273;SDS011;7738;49.532;11.156;2023-02-28T03:44:06;11.30;;;4.20;;
15273;SDS011;7738;49.532;11.156;2023-02-28T03:46:42;4.23;;;3.40;;
15273;SDS011;7738;49.532;11.156;2023-02-28T03:49:18;5.57;;;4.23;;
15273;SDS011;7738;49.532;11.156;2023-02-28T03:54:26;6.20;;;3.97;;
15273;SDS011;7738;49.532;11.156;2023-02-28T03:57:02;10.87;;;4.20;;
15273;SDS011;7738;49.532;11.156;2023-02-28T03:59:37;6.47;;;3.20;;
15273;SDS011;7738;49.532;11.156;2023-02-28T04:02:10;4.55;;;3.65;;
15273;SDS011;7738;49.532;11.156;2023-02-28T04:04:40;4.73;;;3.53;;
15273;SDS011;7738;49.532;11.156;2023-02-28T04:07:15;8.25;;;4.60;;
15273;SDS011;7738;49.532;11.156;2023-02-28T04:09:48;4.97;;;3.67;;
15273;SDS011;7738;49.532;11.156;2023-02-28T04:12:19;5.13;;;4.10;;
15273;SDS011;7738;49.532;11.156;2023-02-28T04:14:49;7.63;;;4.13;;
15273;SDS011;7738;49.532;11.156;2023-02-28T04:17:19;6.57;;;4.50;;
15273;SDS011;7738;49.532;11.156;2023-02-28T04:19:50;6.20;;;4.00;;
15273;SDS011;7738;49.532;11.156;2023-02-28T04:22:20;5.30;;;4.70;;
15273;SDS011;7738;49.532;11.156;2023-02-28T04:24:55;6.83;;;4.53;;
15273;SDS011;7738;49.532;11.156;2023-02-28T04:27:25;4.83;;;4.00;;
15273;SDS011;7738;49.532;11.156;2023-02-28T04:29:58;6.37;;;4.40;;
15273;SDS011;7738;49.532;11.156;2023-02-28T04:32:28;6.77;;;4.33;;
15273;SDS011;7738;49.532;11.156;2023-02-28T04:34:58;6.87;;;4.23;;
15273;SDS011;7738;49.532;11.156;2023-02-28T04:37:29;6.03;;;3.87;;
15273;SDS011;7738;49.532;11.156;2023-02-28T04:40:04;4.53;;;4.13;;
15273;SDS011;7738;49.532;11.156;2023-02-28T04:42:35;7.28;;;4.47;;
15273;SDS011;7738;49.532;11.156;2023-02-28T04:45:05;6.90;;;4.53;;
15273;SDS011;7738;49.532;11.156;2023-02-28T04:47:37;7.53;;;4.70;;
15273;SDS011;7738;49.532;11.156;2023-02-28T04:50:08;8.17;;;4.70;;
15273;SDS011;7738;49.532;11.156;2023-02-28T04:52:38;7.57;;;4.83;;
15273;SDS011;7738;49.532;11.156;2023-02-28T04:55:11;11.33;;;5.43;;
15273;SDS011;7738;49.532;11.156;2023-02-28T04:57:41;7.27;;;4.27;;
15273;SDS011;7738;49.532;11.156;2023-02-28T05:00:11;10.50;;;4.57;;
15273;SDS011;7738;49.532;11.156;2023-02-28T05:02:43;8.70;;;4.90;;
15273;SDS011;7738;49.532;11.156;2023-02-28T05:05:13;9.97;;;4.57;;
15273;SDS011;7738;49.532;11.156;2023-02-28T05:07:45;8.00;;;5.20;;
15273;SDS011;7738;49.532;11.156;2023-02-28T05:10:17;12.73;;;6.10;;
15273;SDS011;7738;49.532;11.156;2023-02-28T05:12:47;8.20;;;4.40;;
15273;SDS011;7738;49.532;11.156;2023-02-28T05:15:17;8.13;;;4.50;;
15273;SDS011;7738;49.532;11.156;2023-02-28T05:17:47;8.87;;;5.20;;
15273;SDS011;7738;49.532;11.156;2023-02-28T05:20:17;10.60;;;4.73;;
15273;SDS011;7738;49.532;11.156;2023-02-28T05:22:47;8.43;;;5.10;;
15273;SDS011;7738;49.532;11.156;2023-02-28T05:25:21;5.37;;;3.77;;
15273;SDS011;7738;49.532;11.156;2023-02-28T05:27:52;5.17;;;3.97;;
15273;SDS011;7738;49.532;11.156;2023-02-28T05:30:22;6.37;;;4.10;;
15273;SDS011;7738;49.532;11.156;2023-02-28T05:32:52;4.87;;;3.87;;
15273;SDS011;7738;49.532;11.156;2023-02-28T05:35:22;7.73;;;4.43;;
15273;SDS011;7738;49.532;11.156;2023-02-28T05:37:52;10.20;;;5.30;;
15273;SDS011;7738;49.532;11.156;2023-02-28T05:40:24;6.43;;;4.80;;
15273;SDS011;7738;49.532;11.156;2023-02-28T05:42:54;9.03;;;4.37;;
15273;SDS011;7738;49.532;11.156;2023-02-28T05:45:24;8.47;;;4.70;;
15273;SDS011;7738;49.532;11.156;2023-02-28T05:47:55;6.23;;;4.43;;
15273;SDS011;7738;49.532;11.156;2023-02-28T05:50:25;8.60;;;5.73;;
15273;SDS011;7738;49.532;11.156;2023-02-28T05:52:55;8.20;;;5.27;;
15273;SDS011;7738;49.532;11.156;2023-02-28T05:55:28;8.37;;;5.77;;
15273;SDS011;7738;49.532;11.156;2023-02-28T05:57:58;13.53;;;6.33;;
15273;SDS011;7738;49.532;11.156;2023-02-28T06:00:28;13.77;;;6.50;;
15273;SDS011;7738;49.532;11.156;2023-02-28T06:02:58;8.93;;;6.70;;
15273;SDS011;7738;49.532;11.156;2023-02-28T06:05:28;7.80;;;5.17;;
15273;SDS011;7738;49.532;11.156;2023-02-28T06:07:59;8.43;;;6.00;;
15273;SDS011;7738;49.532;11.156;2023-02-28T06:10:32;6.73;;;4.97;;
15273;SDS011;7738;49.532;11.156;2023-02-28T06:13:02;7.13;;;5.07;;
15273;SDS011;7738;49.532;11.156;2023-02-28T06:15:33;7.27;;;4.57;;
15273;SDS011;7738;49.532;11.156;2023-02-28T06:18:03;6.27;;;5.27;;
15273;SDS011;7738;49.532;11.156;2023-02-28T06:20:33;9.17;;;5.23;;
15273;SDS011;7738;49.532;11.156;2023-02-28T06:23:03;8.50;;;5.37;;
15273;SDS011;7738;49.532;11.156;2023-02-28T06:25:36;7.63;;;4.77;;
15273;SDS011;7738;49.532;11.156;2023-02-28T06:28:06;9.20;;;5.37;;
15273;SDS011;7738;49.532;11.156;2023-02-28T06:30:36;6.27;;;4.80;;
15273;SDS011;7738;49.532;11.156;2023-02-28T06:33:06;9.50;;;5.10;;
15273;SDS011;7738;49.532;11.156;2023-02-28T06:35:36;6.23;;;5.20;;
15273;SDS011;7738;49.532;11.156;2023-02-28T06:38:06;6.70;;;5.53;;
15273;SDS011;7738;49.532;11.156;2023-02-28T06:40:39;6.27;;;4.87;;
15273;SDS011;7738;49.532;11.156;2023-02-28T06:43:10;7.67;;;5.33;;
15273;SDS011;7738;49.532;11.156;2023-02-28T06:45:41;7.60;;;4.83;;
15273;SDS011;7738;49.532;11.156;2023-02-28T06:48:12;7.13;;;4.83;;
15273;SDS011;7738;49.532;11.156;2023-02-28T06:50:42;6.13;;;4.57;;
15273;SDS011;7738;49.532;11.156;2023-02-28T06:53:13;8.63;;;5.87;;
15273;SDS011;7738;49.532;11.156;2023-02-28T06:55:46;7.57;;;5.43;;
15273;SDS011;7738;49.532;11.156;2023-02-28T06:58:16;8.20;;;5.30;;
15273;SDS011;7738;49.532;11.156;2023-02-28T07:00:49;7.47;;;5.27;;
15273;SDS011;7738;49.532;11.156;2023-02-28T07:03:20;7.07;;;4.72;;
15273;SDS011;7738;49.532;11.156;2023-02-28T07:05:50;8.50;;;6.60;;
15273;SDS011;7738;49.532;11.156;2023-02-28T07:08:22;9.47;;;5.80;;
15273;SDS011;7738;49.532;11.156;2023-02-28T07:10:55;13.73;;;6.80;;
15273;SDS011;7738;49.532;11.156;2023-02-28T07:13:25;7.97;;;4.73;;
15273;SDS011;7738;49.532;11.156;2023-02-28T07:15:56;10.83;;;4.63;;
15273;SDS011;7738;49.532;11.156;2023-02-28T07:18:28;5.40;;;4.43;;
15273;SDS011;7738;49.532;11.156;2023-02-28T07:20:58;13.90;;;6.50;;
15273;SDS011;7738;49.532;11.156;2023-02-28T07:23:33;7.70;;;4.87;;
15273;SDS011;7738;49.532;11.156;2023-02-28T07:26:07;6.90;;;5.23;;
15273;SDS011;7738;49.532;11.156;2023-02-28T07:28:42;9.70;;;6.53;;
15273;SDS011;7738;49.532;11.156;2023-02-28T07:31:13;8.97;;;4.90;;
15273;SDS011;7738;49.532;11.156;2023-02-28T07:33:44;7.00;;;5.90;;
15273;SDS011;7738;49.532;11.156;2023-02-28T07:36:15;10.97;;;7.13;;
15273;SDS011;7738;49.532;11.156;2023-02-28T07:38:46;9.43;;;5.00;;
15273;SDS011;7738;49.532;11.156;2023-02-28T07:41:20;9.70;;;7.07;;
15273;SDS011;7738;49.532;11.156;2023-02-28T07:43:54;11.50;;;6.17;;
15273;SDS011;7738;49.532;11.156;2023-02-28T07:46:26;9.13;;;5.67;;
15273;SDS011;7738;49.532;11.156;2023-02-28T07:49:02;8.97;;;5.73;;
15273;SDS011;7738;49.532;11.156;2023-02-28T07:51:32;13.87;;;6.07;;
15273;SDS011;7738;49.532;11.156;2023-02-28T07:54:02;8.47;;;6.43;;
15273;SDS011;7738;49.532;11.156;2023-02-28T07:56:35;7.33;;;5.40;;
15273;SDS011;7738;49.532;11.156;2023-02-28T07:59:05;10.23;;;6.07;;
15273;SDS011;7738;49.532;11.156;2023-02-28T08:01:35;8.67;;;6.17;;
15273;SDS011;7738;49.532;11.156;2023-02-28T08:04:05;12.73;;;7.07;;
15273;SDS011;7738;49.532;11.156;2023-02-28T08:06:35;9.50;;;5.33;;
15273;SDS011;7738;49.532;11.156;2023-02-28T08:09:05;10.47;;;6.30;;
15273;SDS011;7738;49.532;11.156;2023-02-28T08:11:38;9.13;;;5.80;;
15273;SDS011;7738;49.532;11.156;2023-02-28T08:14:08;9.07;;;6.67;;
15273;SDS011;7738;49.532;11.156;2023-02-28T08:16:38;9.27;;;6.17;;
15273;SDS011;7738;49.532;11.156;2023-02-28T08:19:09;10.20;;;5.90;;
15273;SDS011;7738;49.532;11.156;2023-02-28T08:21:39;9.37;;;6.30;;
15273;SDS011;7738;49.532;11.156;2023-02-28T08:24:09;9.40;;;6.03;;
15273;SDS011;7738;49.532;11.156;2023-02-28T08:26:42;7.57;;;5.57;;
15273;SDS011;7738;49.532;11.156;2023-02-28T08:29:12;9.77;;;5.90;;
15273;SDS011;7738;49.532;11.156;2023-02-28T08:31:43;8.63;;;4.97;;
15273;SDS011;7738;49.532;11.156;2023-02-28T08:34:13;10.23;;;6.23;;
15273;SDS011;7738;49.532;11.156;2023-02-28T08:36:44;10.97;;;7.27;;
15273;SDS011;7738;49.532;11.156;2023-02-28T08:39:15;11.13;;;6.47;;
15273;SDS011;7738;49.532;11.156;2023-02-28T08:41:49;8.07;;;5.73;;
15273;SDS011;7738;49.532;11.156;2023-02-28T08:44:32;10.53;;;6.70;;
15273;SDS011;7738;49.532;11.156;2023-02-28T08:47:02;9.23;;;5.53;;
15273;SDS011;7738;49.532;11.156;2023-02-28T08:49:32;9.10;;;6.57;;
15273;SDS011;7738;49.532;11.156;2023-02-28T08:52:03;9.00;;;6.23;;
15273;SDS011;7738;49.532;11.156;2023-02-28T08:54:34;6.77;;;4.93;;
15273;SDS011;7738;49.532;11.156;2023-02-28T08:57:07;6.70;;;5.10;;
15273;SDS011;7738;49.532;11.156;2023-02-28T08:59:37;9.10;;;6.50;;
15273;SDS011;7738;49.532;11.156;2023-02-28T09:02:08;7.67;;;5.23;;
15273;SDS011;7738;49.532;11.156;2023-02-28T09:04:41;9.03;;;5.07;;
15273;SDS011;7738;49.532;11.156;2023-02-28T09:07:12;9.73;;;6.37;;
15273;SDS011;7738;49.532;11.156;2023-02-28T09:09:42;10.23;;;4.70;;
15273;SDS011;7738;49.532;11.156;2023-02-28T09:12:23;7.00;;;6.23;;
15273;SDS011;7738;49.532;11.156;2023-02-28T09:14:54;7.93;;;5.63;;
15273;SDS011;7738;49.532;11.156;2023-02-28T09:17:24;7.20;;;5.30;;
15273;SDS011;7738;49.532;11.156;2023-02-28T09:19:56;18.33;;;6.90;;
15273;SDS011;7738;49.532;11.156;2023-02-28T09:22:27;8.60;;;5.97;;
15273;SDS011;7738;49.532;11.156;2023-02-28T09:24:57;9.57;;;5.90;;
15273;SDS011;7738;49.532;11.156;2023-02-28T09:27:30;7.17;;;5.37;;
15273;SDS011;7738;49.532;11.156;2023-02-28T09:30:00;8.87;;;4.80;;
15273;SDS011;7738;49.532;11.156;2023-02-28T09:32:30;7.27;;;4.73;;
15273;SDS011;7738;49.532;11.156;2023-02-28T09:34:59;7.73;;;5.83;;
15273;SDS011;7738;49.532;11.156;2023-02-28T09:37:29;9.13;;;5.47;;
15273;SDS011;7738;49.532;11.156;2023-02-28T09:40:00;11.43;;;5.77;;
15273;SDS011;7738;49.532;11.156;2023-02-28T09:42:33;7.47;;;5.53;;
15273;SDS011;7738;49.532;11.156;2023-02-28T09:45:05;9.10;;;5.80;;
15273;SDS011;7738;49.532;11.156;2023-02-28T09:47:44;7.77;;;5.20;;
15273;SDS011;7738;49.532;11.156;2023-02-28T09:50:29;7.00;;;5.07;;
15273;SDS011;7738;49.532;11.156;2023-02-28T09:53:03;7.77;;;5.27;;
15273;SDS011;7738;49.532;11.156;2023-02-28T09:55:41;6.47;;;4.27;;
15273;SDS011;7738;49.532;11.156;2023-02-28T09:58:18;7.38;;;5.15;;
15273;SDS011;7738;49.532;11.156;2023-02-28T10:00:56;7.67;;;5.20;;
15273;SDS011;7738;49.532;11.156;2023-02-28T10:03:32;10.17;;;5.53;;
15273;SDS011;7738;49.532;11.156;2023-02-28T10:06:10;8.30;;;4.80;;
15273;SDS011;7738;49.532;11.156;2023-02-28T10:08:45;8.30;;;5.17;;
15273;SDS011;7738;49.532;11.156;2023-02-28T10:11:21;6.13;;;4.37;;
15273;SDS011;7738;49.532;11.156;2023-02-28T10:13:56;4.83;;;4.00;;
15273;SDS011;7738;49.532;11.156;2023-02-28T10:16:31;8.73;;;5.30;;
15273;SDS011;7738;49.532;11.156;2023-02-28T10:19:05;7.05;;;4.78;;
15273;SDS011;7738;49.532;11.156;2023-02-28T10:21:40;8.43;;;4.72;;
15273;SDS011;7738;49.532;11.156;2023-02-28T10:24:15;7.88;;;4.82;;
15273;SDS011;7738;49.532;11.156;2023-02-28T10:26:49;7.10;;;4.65;;
15273;SDS011;7738;49.532;11.156;2023-02-28T10:29:28;7.53;;;4.03;;
15273;SDS011;7738;49.532;11.156;2023-02-28T10:32:02;7.68;;;4.45;;
15273;SDS011;7738;49.532;11.156;2023-02-28T10:34:34;7.93;;;4.83;;
15273;SDS011;7738;49.532;11.156;2023-02-28T10:37:04;5.23;;;4.57;;
15273;SDS011;7738;49.532;11.156;2023-02-28T10:39:37;7.60;;;4.67;;
15273;SDS011;7738;49.532;11.156;2023-02-28T10:42:19;9.20;;;5.65;;
15273;SDS011;7738;49.532;11.156;2023-02-28T10:45:10;8.10;;;4.68;;
15273;SDS011;7738;49.532;11.156;2023-02-28T10:47:48;8.38;;;4.28;;
15273;SDS011;7738;49.532;11.156;2023-02-28T10:53:25;16.10;;;5.72;;
15273;SDS011;7738;49.532;11.156;2023-02-28T10:56:04;6.78;;;3.90;;
15273;SDS011;7738;49.532;11.156;2023-02-28T10:58:49;7.75;;;4.95;;
15273;SDS011;7738;49.532;11.156;2023-02-28T11:01:35;6.68;;;3.88;;
15273;SDS011;7738;49.532;11.156;2023-02-28T11:04:17;5.53;;;4.35;;
15273;SDS011;7738;49.532;11.156;2023-02-28T11:06:56;9.50;;;4.63;;
15273;SDS011;7738;49.532;11.156;2023-02-28T11:09:28;11.77;;;4.28;;
15273;SDS011;7738;49.532;11.156;2023-02-28T11:12:02;8.70;;;4.70;;
15273;SDS011;7738;49.532;11.156;2023-02-28T11:14:35;6.43;;;4.68;;
15273;SDS011;7738;49.532;11.156;2023-02-28T11:17:21;7.43;;;4.40;;
15273;SDS011;7738;49.532;11.156;2023-02-28T11:19:54;5.13;;;4.15;;
15273;SDS011;7738;49.532;11.156;2023-02-28T11:22:29;10.15;;;4.13;;
15273;SDS011;7738;49.532;11.156;2023-02-28T11:25:03;8.45;;;5.32;;
15273;SDS011;7738;49.532;11.156;2023-02-28T11:27:45;11.55;;;5.20;;
15273;SDS011;7738;49.532;11.156;2023-02-28T11:30:28;7.75;;;5.03;;
15273;SDS011;7738;49.532;11.156;2023-02-28T11:33:13;7.10;;;4.10;;
15273;SDS011;7738;49.532;11.156;2023-02-28T11:35:52;7.15;;;3.63;;
15273;SDS011;7738;49.532;11.156;2023-02-28T11:38:25;11.63;;;4.70;;
15273;SDS011;7738;49.532;11.156;2023-02-28T11:41:03;5.72;;;3.90;;
15273;SDS011;7738;49.532;11.156;2023-02-28T11:43:45;8.23;;;4.63;;
15273;SDS011;7738;49.532;11.156;2023-02-28T11:46:26;6.03;;;4.40;;
15273;SDS011;7738;49.532;11.156;2023-02-28T11:49:07;7.18;;;3.92;;
15273;SDS011;7738;49.532;11.156;2023-02-28T11:51:49;6.82;;;4.30;;
15273;SDS011;7738;49.532;11.156;2023-02-28T11:54:27;5.68;;;3.72;;
15273;SDS011;7738;49.532;11.156;2023-02-28T11:57:15;5.78;;;4.10;;
15273;SDS011;7738;49.532;11.156;2023-02-28T11:59:59;7.80;;;4.53;;
15273;SDS011;7738;49.532;11.156;2023-02-28T12:02:44;15.30;;;5.47;;
15273;SDS011;7738;49.532;11.156;2023-02-28T12:05:27;8.20;;;4.82;;
15273;SDS011;7738;49.532;11.156;2023-02-28T12:08:06;5.53;;;4.10;;
15273;SDS011;7738;49.532;11.156;2023-02-28T12:10:49;7.47;;;4.75;;
15273;SDS011;7738;49.532;11.156;2023-02-28T12:13:29;6.82;;;4.88;;
15273;SDS011;7738;49.532;11.156;2023-02-28T12:16:22;7.82;;;5.10;;
15273;SDS011;7738;49.532;11.156;2023-02-28T12:19:07;6.95;;;4.55;;
15273;SDS011;7738;49.532;11.156;2023-02-28T12:21:53;10.10;;;5.20;;
15273;SDS011;7738;49.532;11.156;2023-02-28T12:27:31;7.05;;;4.85;;
15273;SDS011;7738;49.532;11.156;2023-02-28T12:30:04;10.68;;;4.82;;
15273;SDS011;7738;49.532;11.156;2023-02-28T12:32:43;18.75;;;10.30;;
15273;SDS011;7738;49.532;11.156;2023-02-28T12:35:17;6.13;;;5.07;;
15273;SDS011;7738;49.532;11.156;2023-02-28T12:37:55;8.70;;;4.82;;
15273;SDS011;7738;49.532;11.156;2023-02-28T12:40:32;7.10;;;4.82;;
15273;SDS011;7738;49.532;11.156;2023-02-28T12:43:13;7.35;;;5.07;;
15273;SDS011;7738;49.532;11.156;2023-02-28T12:45:46;7.28;;;5.00;;
15273;SDS011;7738;49.532;11.156;2023-02-28T12:48:20;8.32;;;5.07;;
15273;SDS011;7738;49.532;11.156;2023-02-28T12:50:54;8.73;;;5.47;;
15273;SDS011;7738;49.532;11.156;2023-02-28T12:53:35;9.98;;;6.00;;
15273;SDS011;7738;49.532;11.156;2023-02-28T12:56:14;9.27;;;4.90;;
15273;SDS011;7738;49.532;11.156;2023-02-28T12:58:50;7.07;;;4.97;;
15273;SDS011;7738;49.532;11.156;2023-02-28T13:01:29;9.63;;;5.75;;
15273;SDS011;7738;49.532;11.156;2023-02-28T13:07:28;11.77;;;5.85;;
15273;SDS011;7738;49.532;11.156;2023-02-28T13:10:21;7.88;;;5.43;;
15273;SDS011;7738;49.532;11.156;2023-02-28T13:12:53;9.07;;;5.57;;
15273;SDS011;7738;49.532;11.156;2023-02-28T13:15:25;7.60;;;5.60;;
15273;SDS011;7738;49.532;11.156;2023-02-28T13:17:56;7.88;;;5.28;;
15273;SDS011;7738;49.532;11.156;2023-02-28T13:20:29;10.75;;;6.03;;
15273;SDS011;7738;49.532;11.156;2023-02-28T13:23:04;7.38;;;5.10;;
15273;SDS011;7738;49.532;11.156;2023-02-28T13:26:09;9.60;;;4.93;;
15273;SDS011;7738;49.532;11.156;2023-02-28T13:37:44;8.65;;;5.35;;
15273;SDS011;7738;49.532;11.156;2023-02-28T13:40:29;8.70;;;4.80;;
15273;SDS011;7738;49.532;11.156;2023-02-28T13:43:09;5.90;;;4.57;;
15273;SDS011;7738;49.532;11.156;2023-02-28T13:45:40;6.72;;;4.60;;
15273;SDS011;7738;49.532;11.156;2023-02-28T13:48:41;7.88;;;5.25;;
15273;SDS011;7738;49.532;11.156;2023-02-28T13:54:11;8.48;;;5.50;;
15273;SDS011;7738;49.532;11.156;2023-02-28T13:56:57;7.80;;;5.25;;
15273;SDS011;7738;49.532;11.156;2023-02-28T13:59:43;8.18;;;5.45;;
15273;SDS011;7738;49.532;11.156;2023-02-28T14:05:12;7.13;;;5.07;;
15273;SDS011;7738;49.532;11.156;2023-02-28T14:07:45;8.02;;;5.28;;
15273;SDS011;7738;49.532;11.156;2023-02-28T14:10:22;8.70;;;4.82;;
15273;SDS011;7738;49.532;11.156;2023-02-28T14:13:00;8.48;;;5.80;;
15273;SDS011;7738;49.532;11.156;2023-02-28T14:15:46;12.27;;;6.55;;
15273;SDS011;7738;49.532;11.156;2023-02-28T14:18:23;7.22;;;5.53;;
15273;SDS011;7738;49.532;11.156;2023-02-28T14:21:08;8.50;;;5.30;;
15273;SDS011;7738;49.532;11.156;2023-02-28T14:23:49;8.88;;;5.18;;
15273;SDS011;7738;49.532;11.156;2023-02-28T14:26:38;8.85;;;4.82;;
15273;SDS011;7738;49.532;11.156;2023-02-28T14:29:41;11.85;;;5.35;;
15273;SDS011;7738;49.532;11.156;2023-02-28T14:32:30;7.30;;;5.03;;
15273;SDS011;7738;49.532;11.156;2023-02-28T14:35:05;6.38;;;4.95;;
15273;SDS011;7738;49.532;11.156;2023-02-28T14:37:47;9.75;;;5.75;;
15273;SDS011;7738;49.532;11.156;2023-02-28T14:40:19;9.70;;;5.50;;
15273;SDS011;7738;49.532;11.156;2023-02-28T14:42:55;8.38;;;5.68;;
15273;SDS011;7738;49.532;11.156;2023-02-28T14:45:26;6.72;;;4.63;;
15273;SDS011;7738;49.532;11.156;2023-02-28T14:48:01;10.98;;;5.57;;
15273;SDS011;7738;49.532;11.156;2023-02-28T14:50:34;6.82;;;4.70;;
15273;SDS011;7738;49.532;11.156;2023-02-28T14:53:05;8.15;;;5.22;;
15273;SDS011;7738;49.532;11.156;2023-02-28T14:55:45;9.70;;;6.07;;
15273;SDS011;7738;49.532;11.156;2023-02-28T14:58:20;8.88;;;5.65;;
15273;SDS011;7738;49.532;11.156;2023-02-28T15:00:53;6.50;;;5.00;;
15273;SDS011;7738;49.532;11.156;2023-02-28T15:03:30;8.00;;;4.85;;
15273;SDS011;7738;49.532;11.156;2023-02-28T15:06:03;10.10;;;5.53;;
15273;SDS011;7738;49.532;11.156;2023-02-28T15:08:34;9.10;;;5.68;;
15273;SDS011;7738;49.532;11.156;2023-02-28T15:11:04;10.48;;;4.85;;
15273;SDS011;7738;49.532;11.156;2023-02-28T15:13:38;7.65;;;4.93;;
15273;SDS011;7738;49.532;11.156;2023-02-28T15:18:46;6.90;;;4.82;;
15273;SDS011;7738;49.532;11.156;2023-02-28T15:21:20;7.65;;;5.00;;
15273;SDS011;7738;49.532;11.156;2023-02-28T15:23:53;6.90;;;5.13;;
15273;SDS011;7738;49.532;11.156;2023-02-28T15:26:27;8.52;;;5.05;;
15273;SDS011;7738;49.532;11.156;2023-02-28T15:29:03;8.10;;;5.43;;
15273;SDS011;7738;49.532;11.156;2023-02-28T15:31:39;9.07;;;5.97;;
15273;SDS011;7738;49.532;11.156;2023-02-28T15:34:30;8.68;;;5.30;;
15273;SDS011;7738;49.532;11.156;2023-02-28T15:40:03;11.82;;;6.10;;
15273;SDS011;7738;49.532;11.156;2023-02-28T15:42:37;7.40;;;5.15;;
15273;SDS011;7738;49.532;11.156;2023-02-28T15:48:14;10.20;;;5.95;;
15273;SDS011;7738;49.532;11.156;2023-02-28T15:50:51;8.95;;;5.75;;
15273;SDS011;7738;49.532;11.156;2023-02-28T15:53:24;9.20;;;6.28;;
15273;SDS011;7738;49.532;11.156;2023-02-28T15:55:59;10.95;;;6.50;;
15273;SDS011;7738;49.532;11.156;2023-02-28T15:58:30;9.48;;;5.93;;
15273;SDS011;7738;49.532;11.156;2023-02-28T16:01:06;9.35;;;5.30;;
15273;SDS011;7738;49.532;11.156;2023-02-28T16:03:46;9.88;;;5.82;;
15273;SDS011;7738;49.532;11.156;2023-02-28T16:09:16;12.20;;;5.93;;
15273;SDS011;7738;49.532;11.156;2023-02-28T16:11:46;9.75;;;6.45;;
15273;SDS011;7738;49.532;11.156;2023-02-28T16:14:19;10.07;;;6.50;;
15273;SDS011;7738;49.532;11.156;2023-02-28T16:16:54;8.73;;;6.30;;